Time,TemperatureF,DewpointF,PressureIn,WindDirection,WindDirectionDegrees,WindSpeedMPH,WindSpeedGustMPH,Humidity,HourlyPrecipIn,Conditions,Clouds,dailyrainin,SoftwareType,DateUTC
2013-05-14 00:13:00,37.9,31.0,30.07,NNE,22,0.0,1.0,76,0.00,,,0.00,weatherlink.com 1.10,2013-05-14 04:13:00,
2013-05-14 00:29:00,37.5,31.0,30.07,NNE,22,0.0,1.0,78,0.00,,,0.00,weatherlink.com 1.10,2013-05-14 04:29:00,
2013-05-14 00:44:00,37.4,31.0,30.08,NNE,22,0.0,2.0,79,0.00,,,0.00,weatherlink.com 1.10,2013-05-14 04:44:00,
2013-05-14 00:59:00,37.5,31.0,30.07,NNE,27,0.0,4.0,78,0.00,,,0.00,weatherlink.com 1.10,2013-05-14 04:59:00,
2013-05-14 01:14:00,37.3,31.0,30.07,NNE,27,0.0,2.0,78,0.00,,,0.00,weatherlink.com 1.10,2013-05-14 05:14:00,
2013-05-14 01:29:00,36.5,31.0,30.07,NNE,27,0.0,2.0,81,0.00,,,0.00,weatherlink.com 1.10,2013-05-14 05:29:00,
2013-05-14 01:44:00,35.8,31.0,30.07,NNE,27,0.0,2.0,84,0.00,,,0.00,weatherlink.com 1.10,2013-05-14 05:44:00,
2013-05-14 01:59:00,35.2,31.0,30.07,NNE,27,0.0,3.0,84,0.00,,,0.00,weatherlink.com 1.10,2013-05-14 05:59:00,
2013-05-14 02:14:00,34.6,31.0,30.07,NNE,27,0.0,2.0,87,0.00,,,0.00,weatherlink.com 1.10,2013-05-14 06:14:00,
2013-05-14 02:29:00,34.1,31.0,30.07,NNE,27,0.0,2.0,88,0.00,,,0.00,weatherlink.com 1.10,2013-05-14 06:29:00,
2013-05-14 02:44:00,33.7,31.0,30.07,NNE,27,1.0,2.0,88,0.00,,,0.00,weatherlink.com 1.10,2013-05-14 06:44:00,
2013-05-14 02:59:00,33.7,31.0,30.08,NNE,27,2.0,3.0,88,0.00,,,0.00,weatherlink.com 1.10,2013-05-14 06:59:00,
2013-05-14 03:14:00,33.7,31.0,30.08,NNE,27,0.0,3.0,88,0.00,,,0.00,weatherlink.com 1.10,2013-05-14 07:14:00,
2013-05-14 03:29:00,33.5,31.0,30.08,NNE,27,2.0,3.0,89,0.00,,,0.00,weatherlink.com 1.10,2013-05-14 07:29:00,
2013-05-14 03:44:00,32.8,31.0,30.08,SSE,163,1.0,3.0,91,0.00,,,0.00,weatherlink.com 1.10,2013-05-14 07:44:00,
2013-05-14 03:59:00,32.5,30.0,30.08,SSE,163,2.0,4.0,90,0.00,,,0.00,weatherlink.com 1.10,2013-05-14 07:59:00,
2013-05-14 04:14:00,32.4,30.0,30.08,SSE,163,1.0,3.0,91,0.00,,,0.00,weatherlink.com 1.10,2013-05-14 08:14:00,
2013-05-14 04:29:00,32.9,31.0,30.08,SSE,163,1.0,2.0,91,0.00,,,0.00,weatherlink.com 1.10,2013-05-14 08:29:00,
2013-05-14 04:44:00,32.5,31.0,30.08,SSE,163,0.0,3.0,92,0.00,,,0.00,weatherlink.com 1.10,2013-05-14 08:44:00,
2013-05-14 04:59:00,32.6,30.0,30.08,SSE,163,0.0,3.0,91,0.00,,,0.00,weatherlink.com 1.10,2013-05-14 08:59:00,
2013-05-14 05:14:00,32.2,30.0,30.08,SSE,163,0.0,3.0,92,0.00,,,0.00,weatherlink.com 1.10,2013-05-14 09:14:00,
2013-05-14 05:29:00,32.4,30.0,30.08,SSE,163,0.0,1.0,92,0.00,,,0.00,weatherlink.com 1.10,2013-05-14 09:29:00,
2013-05-14 05:44:00,32.2,30.0,30.08,SSE,163,0.0,0.0,92,0.00,,,0.00,weatherlink.com 1.10,2013-05-14 09:44:00,
2013-05-14 05:59:00,32.0,30.0,30.09,SSE,163,0.0,0.0,93,0.00,,,0.00,weatherlink.com 1.10,2013-05-14 09:59:00,
2013-05-14 06:14:00,32.3,31.0,30.09,SSE,163,0.0,0.0,93,0.00,,,0.00,weatherlink.com 1.10,2013-05-14 10:14:00,
2013-05-14 06:29:00,32.7,31.0,30.10,SSE,163,0.0,1.0,94,0.00,,,0.00,weatherlink.com 1.10,2013-05-14 10:29:00,
2013-05-14 06:44:00,34.6,33.0,30.10,SSE,163,0.0,0.0,93,0.00,,,0.00,weatherlink.com 1.10,2013-05-14 10:44:00,
2013-05-14 06:59:00,35.3,33.0,30.10,SSE,163,0.0,0.0,91,0.00,,,0.00,weatherlink.com 1.10,2013-05-14 10:59:00,
2013-05-14 07:14:00,36.0,34.0,30.10,SSE,163,0.0,2.0,91,0.00,,,0.00,weatherlink.com 1.10,2013-05-14 11:14:00,
2013-05-14 07:30:00,37.4,35.0,30.11,SSE,163,0.0,1.0,89,0.00,,,0.00,weatherlink.com 1.10,2013-05-14 11:30:00,
2013-05-14 07:45:00,39.5,35.0,30.11,SSE,163,0.0,3.0,83,0.00,,,0.00,weatherlink.com 1.10,2013-05-14 11:45:00,
2013-05-14 08:00:00,39.2,35.0,30.11,WSW,248,0.0,3.0,83,0.00,,,0.00,weatherlink.com 1.10,2013-05-14 12:00:00,
2013-05-14 08:15:00,41.2,36.0,30.11,NNW,337,1.0,4.0,80,0.00,,,0.00,weatherlink.com 1.10,2013-05-14 12:15:00,
2013-05-14 08:30:00,43.0,36.0,30.11,North,355,4.0,6.0,75,0.00,,,0.00,weatherlink.com 1.10,2013-05-14 12:30:00,
2013-05-14 08:45:00,43.6,35.0,30.11,NE,53,5.0,8.0,71,0.00,,,0.00,weatherlink.com 1.10,2013-05-14 12:45:00,
2013-05-14 09:00:00,45.1,36.0,30.10,WNW,300,3.0,7.0,70,0.00,,,0.00,weatherlink.com 1.10,2013-05-14 13:00:00,
2013-05-14 09:15:00,45.8,34.0,30.10,NNE,32,3.0,8.0,64,0.00,,,0.00,weatherlink.com 1.10,2013-05-14 13:15:00,
2013-05-14 09:30:00,46.5,34.0,30.10,NE,47,0.0,9.0,63,0.00,,,0.00,weatherlink.com 1.10,2013-05-14 13:30:00,
2013-05-14 09:45:00,47.5,34.0,30.09,NW,323,5.0,11.0,60,0.00,,,0.00,weatherlink.com 1.10,2013-05-14 13:45:00,
2013-05-14 10:00:00,48.4,35.0,30.09,NNE,24,4.0,9.0,61,0.00,,,0.00,weatherlink.com 1.10,2013-05-14 14:00:00,
2013-05-14 10:15:00,49.7,35.0,30.08,WNW,302,3.0,7.0,57,0.00,,,0.00,weatherlink.com 1.10,2013-05-14 14:15:00,
2013-05-14 10:30:00,49.4,33.0,30.08,WNW,283,7.0,10.0,53,0.00,,,0.00,weatherlink.com 1.10,2013-05-14 14:30:00,
2013-05-14 10:45:00,49.7,31.0,30.08,NNW,330,5.0,10.0,49,0.00,,,0.00,weatherlink.com 1.10,2013-05-14 14:45:00,
2013-05-14 11:00:00,51.1,32.0,30.08,West,278,5.0,12.0,49,0.00,,,0.00,weatherlink.com 1.10,2013-05-14 15:00:00,
2013-05-14 11:16:00,52.0,32.0,30.08,East,83,9.0,10.0,46,0.00,,,0.00,weatherlink.com 1.10,2013-05-14 15:16:00,
2013-05-14 11:31:00,50.6,29.0,30.07,SW,221,0.0,10.0,44,0.00,,,0.00,weatherlink.com 1.10,2013-05-14 15:31:00,
2013-05-14 11:46:00,53.1,32.0,30.07,NE,49,4.0,11.0,45,0.00,,,0.00,weatherlink.com 1.10,2013-05-14 15:46:00,
2013-05-14 12:01:00,53.0,31.0,30.07,NW,321,5.0,11.0,43,0.00,,,0.00,weatherlink.com 1.10,2013-05-14 16:01:00,
2013-05-14 12:16:00,53.5,31.0,30.06,NW,324,8.0,10.0,43,0.00,,,0.00,weatherlink.com 1.10,2013-05-14 16:16:00,
2013-05-14 12:31:00,53.0,30.0,30.06,NW,321,4.0,8.0,41,0.00,,,0.00,weatherlink.com 1.10,2013-05-14 16:31:00,
2013-05-14 12:46:00,53.8,32.0,30.06,NNW,329,7.0,9.0,43,0.00,,,0.00,weatherlink.com 1.10,2013-05-14 16:46:00,
2013-05-14 13:01:00,54.1,32.0,30.06,WSW,252,8.0,13.0,43,0.00,,,0.00,weatherlink.com 1.10,2013-05-14 17:01:00,
2013-05-14 13:16:00,54.8,33.0,30.06,NW,326,2.0,8.0,44,0.00,,,0.00,weatherlink.com 1.10,2013-05-14 17:16:00,
2013-05-14 13:31:00,54.9,32.0,30.05,East,83,5.0,7.0,42,0.00,,,0.00,weatherlink.com 1.10,2013-05-14 17:31:00,
2013-05-14 13:46:00,52.7,28.0,30.05,NE,42,4.0,6.0,39,0.00,,,0.00,weatherlink.com 1.10,2013-05-14 17:46:00,
2013-05-14 14:01:00,54.6,29.0,30.04,ENE,76,1.0,8.0,38,0.00,,,0.00,weatherlink.com 1.10,2013-05-14 18:01:00,
2013-05-14 14:16:00,56.7,30.0,30.04,NW,308,8.0,13.0,37,0.00,,,0.00,weatherlink.com 1.10,2013-05-14 18:16:00,
2013-05-14 14:31:00,54.9,28.0,30.03,WNW,290,6.0,10.0,36,0.00,,,0.00,weatherlink.com 1.10,2013-05-14 18:31:00,
2013-05-14 14:46:00,55.2,28.0,30.02,WNW,282,3.0,12.0,35,0.00,,,0.00,weatherlink.com 1.10,2013-05-14 18:46:00,
2013-05-14 15:01:00,55.8,28.0,30.02,WNW,286,0.0,9.0,35,0.00,,,0.00,weatherlink.com 1.10,2013-05-14 19:01:00,
2013-05-14 15:16:00,57.2,28.0,30.01,SW,219,6.0,11.0,33,0.00,,,0.00,weatherlink.com 1.10,2013-05-14 19:16:00,
2013-05-14 15:31:00,57.3,30.0,30.00,West,268,4.0,16.0,35,0.00,,,0.00,weatherlink.com 1.10,2013-05-14 19:31:00,
2013-05-14 15:46:00,56.7,28.0,30.00,WNW,302,6.0,11.0,34,0.00,,,0.00,weatherlink.com 1.10,2013-05-14 19:46:00,
2013-05-14 16:01:00,56.9,27.0,30.00,WSW,246,4.0,9.0,32,0.00,,,0.00,weatherlink.com 1.10,2013-05-14 20:01:00,
2013-05-14 16:16:00,58.1,27.0,29.99,West,259,6.0,12.0,31,0.00,,,0.00,weatherlink.com 1.10,2013-05-14 20:16:00,
2013-05-14 16:31:00,57.6,26.0,29.99,WNW,302,5.0,12.0,30,0.00,,,0.00,weatherlink.com 1.10,2013-05-14 20:31:00,
2013-05-14 16:46:00,57.6,28.0,29.99,WNW,287,6.0,11.0,32,0.00,,,0.00,weatherlink.com 1.10,2013-05-14 20:46:00,
2013-05-14 17:01:00,57.9,28.0,29.98,West,269,4.0,8.0,32,0.00,,,0.00,weatherlink.com 1.10,2013-05-14 21:01:00,
2013-05-14 17:16:00,57.4,28.0,29.98,West,266,4.0,10.0,32,0.00,,,0.00,weatherlink.com 1.10,2013-05-14 21:16:00,
2013-05-14 17:31:00,57.8,29.0,29.98,WSW,247,7.0,8.0,33,0.00,,,0.00,weatherlink.com 1.10,2013-05-14 21:31:00,
2013-05-14 17:46:00,57.3,27.0,29.98,NW,304,5.0,9.0,32,0.00,,,0.00,weatherlink.com 1.10,2013-05-14 21:46:00,
2013-05-14 18:01:00,57.5,26.0,29.98,West,271,2.0,8.0,30,0.00,,,0.00,weatherlink.com 1.10,2013-05-14 22:01:00,
2013-05-14 18:16:00,57.6,26.0,29.98,West,259,4.0,13.0,30,0.00,,,0.00,weatherlink.com 1.10,2013-05-14 22:16:00,
2013-05-14 18:31:00,57.2,25.0,29.98,West,269,5.0,9.0,29,0.00,,,0.00,weatherlink.com 1.10,2013-05-14 22:31:00,
2013-05-14 18:46:00,56.9,27.0,29.98,NW,304,2.0,7.0,32,0.00,,,0.00,weatherlink.com 1.10,2013-05-14 22:46:00,
2013-05-14 19:01:00,56.8,27.0,29.98,WNW,288,3.0,6.0,32,0.00,,,0.00,weatherlink.com 1.10,2013-05-14 23:01:00,
2013-05-14 19:16:00,56.3,27.0,29.98,NNW,331,0.0,4.0,32,0.00,,,0.00,weatherlink.com 1.10,2013-05-14 23:16:00,
2013-05-14 19:31:00,55.7,28.0,29.98,NNW,333,0.0,4.0,35,0.00,,,0.00,weatherlink.com 1.10,2013-05-14 23:31:00,
2013-05-14 19:47:00,53.1,29.0,29.99,NNW,336,0.0,1.0,39,0.00,,,0.00,weatherlink.com 1.10,2013-05-14 23:47:00,
2013-05-14 20:02:00,51.2,29.0,29.99,East,84,2.0,3.0,42,0.00,,,0.00,weatherlink.com 1.10,2013-05-15 00:02:00,
2013-05-14 20:17:00,49.6,28.0,29.99,East,84,3.0,3.0,44,0.00,,,0.00,weatherlink.com 1.10,2013-05-15 00:17:00,
2013-05-14 20:32:00,48.5,28.0,30.00,East,84,0.0,3.0,45,0.00,,,0.00,weatherlink.com 1.10,2013-05-15 00:32:00,
2013-05-14 20:47:00,47.3,30.0,30.00,East,84,0.0,1.0,52,0.00,,,0.00,weatherlink.com 1.10,2013-05-15 00:47:00,
2013-05-14 21:02:00,46.4,31.0,30.01,East,84,0.0,2.0,55,0.00,,,0.00,weatherlink.com 1.10,2013-05-15 01:02:00,
2013-05-14 21:17:00,46.2,32.0,30.02,East,84,0.0,1.0,57,0.00,,,0.00,weatherlink.com 1.10,2013-05-15 01:17:00,
2013-05-14 21:32:00,46.5,31.0,30.02,East,84,0.0,1.0,55,0.00,,,0.00,weatherlink.com 1.10,2013-05-15 01:32:00,
2013-05-14 21:47:00,46.7,31.0,30.02,East,84,1.0,2.0,55,0.00,,,0.00,weatherlink.com 1.10,2013-05-15 01:47:00,
2013-05-14 22:02:00,46.8,30.0,30.02,East,84,0.0,2.0,53,0.00,,,0.00,weatherlink.com 1.10,2013-05-15 02:02:00,
2013-05-14 22:17:00,47.0,30.0,30.03,East,84,0.0,2.0,52,0.00,,,0.00,weatherlink.com 1.10,2013-05-15 02:17:00,
2013-05-14 22:32:00,47.1,30.0,30.03,East,84,1.0,3.0,51,0.00,,,0.00,weatherlink.com 1.10,2013-05-15 02:32:00,
2013-05-14 22:47:00,47.1,30.0,30.03,East,85,1.0,3.0,51,0.00,,,0.00,weatherlink.com 1.10,2013-05-15 02:47:00,
2013-05-14 23:02:00,47.5,30.0,30.03,SE,128,2.0,3.0,51,0.00,,,0.00,weatherlink.com 1.10,2013-05-15 03:02:00,
2013-05-14 23:17:00,47.6,30.0,30.03,SE,130,1.0,3.0,50,0.00,,,0.00,weatherlink.com 1.10,2013-05-15 03:17:00,
2013-05-14 23:32:00,47.6,31.0,30.03,East,98,1.0,6.0,52,0.00,,,0.00,weatherlink.com 1.10,2013-05-15 03:32:00,
2013-05-14 23:47:00,47.3,31.0,30.04,ESE,117,0.0,4.0,53,0.00,,,0.00,weatherlink.com 1.10,2013-05-15 03:47:00,